Time;durP1;ratioP1;P1;durP2;ratioP2;P2;SDS_P1;SDS_P2;PMS_P1;PMS_P2;Temp;Humidity;BMP_temperature;BMP_pressure;BME280_temperature;BME280_humidity;BME280_pressure;Samples;Min_cycle;Max_cycle;Signal;HPM_P1;HPM_P2
2023/01/07 00:00:58;;;;;;;0.30;0.30;;;9.90;99.90;;;;;;5083882;28;20501;-70
2023/01/07 00:03:24;;;;;;;0.85;0.85;;;10.00;99.90;;;;;;5068037;28;20051;-72
2023/01/07 00:05:50;;;;;;;3.40;1.75;;;10.00;99.90;;;;;;5090920;28;20044;-71
2023/01/07 00:08:16;;;;;;;1.35;1.23;;;10.00;99.90;;;;;;5082561;28;20047;-71
2023/01/07 00:10:41;;;;;;;0.70;0.70;;;10.00;99.90;;;;;;5075893;28;20439;-71
2023/01/07 00:13:07;;;;;;;0.63;0.63;;;10.10;99.90;;;;;;5071219;28;20515;-71
2023/01/07 00:15:33;;;;;;;0.10;0.10;;;10.10;99.90;;;;;;5097230;28;20173;-71
2023/01/07 00:17:58;;;;;;;0.15;0.15;;;10.20;99.90;;;;;;5102213;28;20503;-70
2023/01/07 00:20:24;;;;;;;2.90;1.00;;;10.30;99.90;;;;;;5083768;28;20480;-71
2023/01/07 00:22:50;;;;;;;1.27;1.23;;;10.30;99.90;;;;;;5092763;28;20658;-71
2023/01/07 00:25:16;;;;;;;0.63;0.63;;;10.30;99.90;;;;;;5106948;28;20040;-72
2023/01/07 00:27:42;;;;;;;1.52;1.42;;;10.30;99.90;;;;;;5088424;28;20044;-71
2023/01/07 00:30:08;;;;;;;0.55;0.55;;;10.20;99.90;;;;;;5077710;28;20646;-71
2023/01/07 00:32:58;;;;;;;0.28;0.28;;;10.20;99.90;;;;;;5100534;28;20036;-71
2023/01/07 00:35:24;;;;;;;0.20;0.20;;;10.20;99.90;;;;;;5065623;28;20380;-71
2023/01/07 00:37:52;;;;;;;0.57;0.57;;;10.20;99.90;;;;;;5074682;28;20161;-71
2023/01/07 00:40:18;;;;;;;0.10;0.10;;;10.20;99.90;;;;;;5102523;28;20043;-71
2023/01/07 00:42:54;;;;;;;0.45;0.45;;;10.20;99.90;;;;;;5090504;28;20048;-71
2023/01/07 00:45:20;;;;;;;0.50;0.50;;;10.20;99.90;;;;;;5066799;28;20059;-71
2023/01/07 00:47:46;;;;;;;0.95;0.95;;;10.30;99.90;;;;;;5100525;28;20067;-70
2023/01/07 00:50:12;;;;;;;0.57;0.57;;;10.30;99.90;;;;;;5091477;28;20040;-71
2023/01/07 00:52:38;;;;;;;0.30;0.30;;;10.30;99.90;;;;;;5079765;28;20076;-71
2023/01/07 00:55:04;;;;;;;0.65;0.65;;;10.30;99.90;;;;;;5076686;28;20044;-71
2023/01/07 00:57:29;;;;;;;0.20;0.20;;;10.30;99.90;;;;;;5072765;28;20044;-71
2023/01/07 00:59:55;;;;;;;0.30;0.30;;;10.40;99.90;;;;;;5095699;28;20090;-71
2023/01/07 01:02:21;;;;;;;0.25;0.25;;;10.50;99.90;;;;;;5088457;28;20121;-71
2023/01/07 01:04:46;;;;;;;0.20;0.20;;;10.50;99.90;;;;;;5083735;28;20125;-71
2023/01/07 01:07:12;;;;;;;0.10;0.10;;;10.50;99.90;;;;;;5089403;28;20497;-71
2023/01/07 01:09:38;;;;;;;1.60;1.25;;;10.60;99.90;;;;;;5055510;28;20047;-71
2023/01/07 01:12:03;;;;;;;0.25;0.25;;;10.60;99.90;;;;;;5100605;28;20042;-71
2023/01/07 01:14:29;;;;;;;0.60;0.60;;;10.60;99.90;;;;;;5077501;28;20446;-72
2023/01/07 01:16:55;;;;;;;1.88;1.42;;;10.60;99.90;;;;;;5105697;28;20047;-71
2023/01/07 01:19:20;;;;;;;0.00;0.00;;;10.60;99.90;;;;;;5061974;28;20127;-71
2023/01/07 01:21:46;;;;;;;0.47;0.47;;;10.60;99.90;;;;;;5091246;28;20073;-71
2023/01/07 01:24:12;;;;;;;0.43;0.43;;;10.60;99.90;;;;;;5084838;28;20208;-71
2023/01/07 01:26:38;;;;;;;1.95;1.23;;;10.60;99.90;;;;;;5091747;28;20048;-71
2023/01/07 01:29:04;;;;;;;1.45;1.00;;;10.60;99.90;;;;;;5062503;28;20052;-72
2023/01/07 01:31:29;;;;;;;1.02;0.93;;;10.60;99.90;;;;;;5078128;28;20048;-71
2023/01/07 01:33:55;;;;;;;0.10;0.10;;;10.70;99.90;;;;;;5073118;28;20154;-72
2023/01/07 01:36:22;;;;;;;0.73;0.73;;;10.60;99.90;;;;;;5101642;28;20556;-71
2023/01/07 01:38:48;;;;;;;0.45;0.45;;;10.60;99.90;;;;;;5098225;28;20552;-72
2023/01/07 01:41:17;;;;;;;0.77;0.77;;;10.60;99.90;;;;;;5071938;28;20052;-72
2023/01/07 01:43:43;;;;;;;0.50;0.50;;;10.60;99.90;;;;;;5098784;28;20164;-72
2023/01/07 01:46:09;;;;;;;1.05;1.05;;;10.60;99.90;;;;;;5101890;28;20048;-72
2023/01/07 01:48:38;;;;;;;1.63;0.80;;;10.50;99.90;;;;;;5081735;28;20037;-72
2023/01/07 01:51:08;;;;;;;0.20;0.20;;;10.50;99.90;;;;;;5087274;28;20530;-71
2023/01/07 01:53:35;;;;;;;1.30;1.23;;;10.50;99.90;;;;;;5090522;28;20118;-72
2023/01/07 01:56:11;;;;;;;0.20;0.20;;;10.50;99.90;;;;;;5088366;28;20052;-71
2023/01/07 01:58:55;;;;;;;0.55;0.55;;;10.50;99.90;;;;;;5088725;28;20036;-72
2023/01/07 02:01:21;;;;;;;0.35;0.35;;;10.50;99.90;;;;;;5077276;28;20043;-71
2023/01/07 02:03:48;;;;;;;0.45;0.45;;;10.50;99.90;;;;;;5094282;28;20052;-71
2023/01/07 02:06:24;;;;;;;0.22;0.22;;;10.50;99.90;;;;;;5084367;28;20076;-72
2023/01/07 02:08:50;;;;;;;12.82;1.75;;;10.50;99.90;;;;;;5086557;28;20056;-72
2023/01/07 02:11:46;;;;;;;0.10;0.10;;;10.50;99.90;;;;;;5089046;28;20045;-72
2023/01/07 02:14:33;;;;;;;1.08;1.08;;;10.40;99.90;;;;;;5097147;28;20048;-72
2023/01/07 02:17:01;;;;;;;0.20;0.20;;;10.50;99.90;;;;;;5072122;28;20044;-72
2023/01/07 02:20:06;;;;;;;0.40;0.40;;;10.50;99.90;;;;;;5064421;28;20563;-71
2023/01/07 02:22:56;;;;;;;;;;;10.50;99.90;;;;;;5092133;28;20093;-72
2023/01/07 02:25:56;;;;;;;0.38;0.38;;;10.50;99.90;;;;;;5067346;28;19920;-71
2023/01/07 02:29:09;;;;;;;0.40;0.40;;;10.50;99.90;;;;;;5088938;28;20498;-72
2023/01/07 02:32:12;;;;;;;0.22;0.22;;;10.50;99.90;;;;;;4980185;28;20081;-71
2023/01/07 02:35:10;;;;;;;0.75;0.75;;;10.50;99.90;;;;;;5059978;28;20079;-72
2023/01/07 02:37:54;;;;;;;2.95;1.35;;;10.50;99.90;;;;;;5080572;28;20131;-72
2023/01/07 02:40:36;;;;;;;0.10;0.10;;;10.50;99.90;;;;;;5060605;28;20036;-72
2023/01/07 02:43:10;;;;;;;0.63;0.63;;;10.50;99.90;;;;;;5069710;28;20082;-72
2023/01/07 02:45:42;;;;;;;0.30;0.30;;;10.50;99.90;;;;;;5082755;28;20128;-72
2023/01/07 02:48:12;;;;;;;0.28;0.28;;;10.50;99.90;;;;;;5072065;28;20052;-71
2023/01/07 02:50:38;;;;;;;0.17;0.17;;;10.50;99.90;;;;;;5084027;28;20368;-72
2023/01/07 02:53:07;;;;;;;0.55;0.50;;;10.50;99.90;;;;;;5107725;28;20130;-71
2023/01/07 02:55:45;;;;;;;0.68;0.68;;;10.50;99.90;;;;;;5086174;28;20526;-71
2023/01/07 02:58:53;;;;;;;0.70;0.70;;;10.50;99.90;;;;;;5092882;28;20100;-71
2023/01/07 03:01:52;;;;;;;1.23;1.08;;;10.50;99.90;;;;;;5050637;28;20064;-72
2023/01/07 03:04:42;;;;;;;0.90;0.90;;;10.50;99.90;;;;;;5074805;28;20059;-71
2023/01/07 03:07:52;;;;;;;0.10;0.10;;;10.50;99.90;;;;;;5086754;28;20047;-73
2023/01/07 03:10:46;;;;;;;0.47;0.47;;;10.50;99.90;;;;;;5081517;28;20044;-72
2023/01/07 03:13:38;;;;;;;0.80;0.80;;;10.50;99.90;;;;;;5074342;28;20042;-71
2023/01/07 03:16:39;;;;;;;0.30;0.30;;;10.50;99.90;;;;;;5063641;28;20048;-71
2023/01/07 03:19:11;;;;;;;6.10;2.15;;;10.50;99.90;;;;;;5068410;28;20051;-72
2023/01/07 03:21:38;;;;;;;0.30;0.30;;;10.50;99.90;;;;;;5071810;28;20122;-71
2023/01/07 03:24:05;;;;;;;0.63;0.63;;;10.50;99.90;;;;;;5105660;28;20131;-71
2023/01/07 03:26:36;;;;;;;0.20;0.20;;;10.50;99.90;;;;;;5088232;28;20076;-71
2023/01/07 03:29:05;;;;;;;0.43;0.43;;;10.50;99.90;;;;;;5072833;28;20047;-71
2023/01/07 03:31:32;;;;;;;0.57;0.55;;;10.50;99.90;;;;;;5098056;28;20031;-72
2023/01/07 03:34:11;;;;;;;0.35;0.35;;;10.50;99.90;;;;;;5093102;28;20570;-71
2023/01/07 03:36:40;;;;;;;0.30;0.30;;;10.40;99.90;;;;;;5069950;28;20044;-72
2023/01/07 03:39:09;;;;;;;2.63;1.85;;;10.40;99.90;;;;;;5090102;28;20043;-72
2023/01/07 03:44:21;;;;;;;0.30;0.30;;;10.40;99.90;;;;;;5083800;28;20048;-71
2023/01/07 03:46:47;;;;;;;0.32;0.32;;;10.40;99.90;;;;;;5084099;28;20393;-71
2023/01/07 03:49:13;;;;;;;0.63;0.63;;;10.40;99.90;;;;;;5061632;28;20058;-71
2023/01/07 03:51:38;;;;;;;2.38;1.55;;;10.40;99.90;;;;;;5087267;28;20035;-71
2023/01/07 03:54:04;;;;;;;1.08;0.73;;;10.40;99.90;;;;;;5096641;28;20036;-71
2023/01/07 03:56:30;;;;;;;0.28;0.28;;;10.40;99.90;;;;;;5082273;28;20458;-70
2023/01/07 03:58:55;;;;;;;0.28;0.28;;;10.40;99.90;;;;;;5086810;28;20044;-71
2023/01/07 04:01:21;;;;;;;0.45;0.45;;;10.40;99.90;;;;;;5102986;28;20055;-71
2023/01/07 04:03:47;;;;;;;0.63;0.63;;;10.30;99.90;;;;;;5088496;28;20255;-71
2023/01/07 04:06:13;;;;;;;0.38;0.38;;;10.30;99.90;;;;;;5080137;28;20690;-71
2023/01/07 04:08:38;;;;;;;0.85;0.85;;;10.30;99.90;;;;;;5081788;28;20042;-72
2023/01/07 04:11:04;;;;;;;0.10;0.10;;;10.30;99.90;;;;;;5087730;28;20071;-71
2023/01/07 04:13:30;;;;;;;1.50;0.77;;;10.30;99.90;;;;;;5084335;28;20395;-71
2023/01/07 04:15:55;;;;;;;2.63;1.35;;;10.30;99.90;;;;;;5098882;28;20043;-72
2023/01/07 04:18:21;;;;;;;0.30;0.30;;;10.30;99.90;;;;;;5065638;28;20055;-72
2023/01/07 04:20:47;;;;;;;4.80;1.65;;;10.30;99.90;;;;;;5086613;28;20043;-71
2023/01/07 04:23:16;;;;;;;0.63;0.63;;;10.30;99.90;;;;;;5094948;28;20070;-72
2023/01/07 04:25:46;;;;;;;1.45;1.27;;;10.20;99.90;;;;;;5101603;28;20441;-71
2023/01/07 04:28:12;;;;;;;0.20;0.20;;;10.20;99.90;;;;;;5082636;28;20046;-72
2023/01/07 04:30:38;;;;;;;0.10;0.10;;;10.20;99.90;;;;;;5083720;28;20047;-72
2023/01/07 04:33:04;;;;;;;0.73;0.68;;;10.20;99.90;;;;;;5083834;28;20039;-71
2023/01/07 04:35:31;;;;;;;11.60;1.65;;;10.20;99.90;;;;;;5080685;28;20488;-71
2023/01/07 04:37:57;;;;;;;0.73;0.73;;;10.20;99.90;;;;;;5095418;28;20404;-71
2023/01/07 04:40:23;;;;;;;29.73;1.17;;;10.30;99.90;;;;;;5088247;28;20071;-71
2023/01/07 04:42:49;;;;;;;0.70;0.52;;;10.30;99.90;;;;;;5078526;28;20072;-70
2023/01/07 04:45:14;;;;;;;0.25;0.25;;;10.30;99.90;;;;;;5061972;28;20056;-71
2023/01/07 04:47:41;;;;;;;1.00;1.00;;;10.40;99.90;;;;;;5081177;28;20071;-71
2023/01/07 04:50:07;;;;;;;0.82;0.82;;;10.40;99.90;;;;;;5090442;28;20036;-71
2023/01/07 04:52:33;;;;;;;0.40;0.40;;;10.40;99.90;;;;;;5075272;28;20079;-71
2023/01/07 04:54:59;;;;;;;0.30;0.30;;;10.50;99.90;;;;;;5086567;28;20031;-70
2023/01/07 04:57:25;;;;;;;0.20;0.20;;;10.50;99.90;;;;;;5059305;28;20444;-71
2023/01/07 04:59:50;;;;;;;0.30;0.30;;;10.50;99.90;;;;;;5064810;28;20047;-71
2023/01/07 05:02:16;;;;;;;0.70;0.70;;;10.50;99.90;;;;;;5081656;28;20135;-70
2023/01/07 05:04:43;;;;;;;0.30;0.30;;;10.50;99.90;;;;;;5073664;28;20847;-71
2023/01/07 05:07:09;;;;;;;0.10;0.10;;;10.40;99.90;;;;;;5086868;28;20655;-70
2023/01/07 05:09:34;;;;;;;0.88;0.88;;;10.50;99.90;;;;;;5078805;28;20066;-71
2023/01/07 05:12:00;;;;;;;0.35;0.35;;;10.50;99.90;;;;;;5084197;28;20125;-72
2023/01/07 05:14:26;;;;;;;0.65;0.65;;;10.50;99.90;;;;;;5079983;28;20040;-71
2023/01/07 05:16:51;;;;;;;0.70;0.70;;;10.40;99.90;;;;;;5099498;28;20106;-71
2023/01/07 05:19:17;;;;;;;1.98;1.38;;;10.40;99.90;;;;;;5085688;28;20483;-71
2023/01/07 05:21:43;;;;;;;0.85;0.70;;;10.40;99.90;;;;;;5095216;28;20079;-71
2023/01/07 05:24:09;;;;;;;9.35;1.38;;;10.40;99.90;;;;;;5107057;28;20067;-71
2023/01/07 05:26:34;;;;;;;0.10;0.10;;;10.40;99.90;;;;;;5075490;28;20055;-71
2023/01/07 05:29:01;;;;;;;0.10;0.10;;;10.40;99.90;;;;;;5079444;28;20044;-70
2023/01/07 05:31:26;;;;;;;0.80;0.80;;;10.30;99.90;;;;;;5092632;28;20112;-72
2023/01/07 05:33:52;;;;;;;0.13;0.13;;;10.30;99.90;;;;;;5090198;28;20526;-72
2023/01/07 05:36:18;;;;;;;5.10;0.60;;;10.30;99.90;;;;;;5103755;28;20585;-72
2023/01/07 05:38:44;;;;;;;0.30;0.30;;;10.30;99.90;;;;;;5083963;28;20048;-71
2023/01/07 05:41:09;;;;;;;0.20;0.20;;;10.30;99.90;;;;;;5090408;28;20040;-71
2023/01/07 05:43:35;;;;;;;1.15;1.00;;;10.30;99.90;;;;;;5069174;28;20031;-71
2023/01/07 05:46:01;;;;;;;4.78;1.45;;;10.30;99.90;;;;;;5103172;28;20071;-72
2023/01/07 05:48:26;;;;;;;1.00;0.85;;;10.30;99.90;;;;;;5079089;28;20527;-71
2023/01/07 05:50:52;;;;;;;0.68;0.68;;;10.30;99.90;;;;;;5085405;28;20048;-71
2023/01/07 05:53:18;;;;;;;0.40;0.40;;;10.30;99.90;;;;;;5092705;28;20073;-71
2023/01/07 05:55:43;;;;;;;0.25;0.25;;;10.30;99.90;;;;;;5083601;28;20507;-71
2023/01/07 05:58:09;;;;;;;0.47;0.47;;;10.30;99.90;;;;;;5088402;28;20399;-71
2023/01/07 06:00:35;;;;;;;0.68;0.68;;;10.30;99.90;;;;;;5097075;28;20381;-72
2023/01/07 06:03:01;;;;;;;0.28;0.28;;;10.30;99.90;;;;;;5076782;28;20433;-71
2023/01/07 06:05:27;;;;;;;0.43;0.43;;;10.20;99.90;;;;;;5083152;28;20039;-70
2023/01/07 06:07:53;;;;;;;0.20;0.20;;;10.20;99.90;;;;;;5086690;28;20052;-70
2023/01/07 06:10:19;;;;;;;0.88;0.88;;;10.30;99.90;;;;;;5063857;28;20483;-71
2023/01/07 06:12:44;;;;;;;0.32;0.32;;;10.30;99.90;;;;;;5072549;28;20098;-71
2023/01/07 06:15:10;;;;;;;4.90;1.95;;;10.20;99.90;;;;;;5091579;28;20036;-71
2023/01/07 06:17:36;;;;;;;0.30;0.30;;;10.30;99.90;;;;;;5062075;28;20043;-71
2023/01/07 06:20:03;;;;;;;3.42;0.85;;;10.20;99.90;;;;;;5080623;28;20044;-71
2023/01/07 06:22:29;;;;;;;1.33;1.23;;;10.20;99.90;;;;;;5077200;28;20051;-71
2023/01/07 06:24:54;;;;;;;0.20;0.20;;;10.20;99.90;;;;;;5086998;28;20044;-71
2023/01/07 06:27:20;;;;;;;1.00;0.98;;;10.30;99.90;;;;;;5059803;28;20434;-71
2023/01/07 06:29:45;;;;;;;1.27;1.17;;;10.30;99.90;;;;;;5072859;28;20098;-71
2023/01/07 06:32:11;;;;;;;0.43;0.43;;;10.20;99.90;;;;;;5086787;28;20114;-72
2023/01/07 06:34:37;;;;;;;0.47;0.47;;;10.20;99.90;;;;;;5086232;28;20104;-71
2023/01/07 06:37:03;;;;;;;0.38;0.38;;;10.20;99.90;;;;;;5079750;28;20105;-71
2023/01/07 06:39:28;;;;;;;1.13;1.05;;;10.30;99.90;;;;;;5082896;28;20112;-71
2023/01/07 06:41:54;;;;;;;5.47;1.05;;;10.20;99.90;;;;;;5083029;28;20048;-71
2023/01/07 06:44:20;;;;;;;0.50;0.50;;;10.20;99.90;;;;;;5083392;28;20609;-70
2023/01/07 06:46:45;;;;;;;0.30;0.30;;;10.20;99.90;;;;;;5089311;28;20110;-71
2023/01/07 06:49:11;;;;;;;0.43;0.43;;;10.10;99.90;;;;;;5082885;28;20044;-70
2023/01/07 06:51:37;;;;;;;0.30;0.30;;;10.10;99.90;;;;;;5101192;28;20561;-70
2023/01/07 06:54:03;;;;;;;0.30;0.30;;;10.10;99.90;;;;;;5085275;28;20055;-71
2023/01/07 06:56:29;;;;;;;0.10;0.10;;;10.10;99.90;;;;;;5071232;28;20128;-70
2023/01/07 06:58:54;;;;;;;1.10;0.93;;;10.10;99.90;;;;;;5089757;28;20562;-70
2023/01/07 07:01:20;;;;;;;1.35;1.23;;;10.10;99.90;;;;;;5090810;28;20049;-70
2023/01/07 07:03:46;;;;;;;0.60;0.60;;;10.10;99.90;;;;;;5080907;28;20036;-70
2023/01/07 07:06:11;;;;;;;0.60;0.60;;;10.10;99.90;;;;;;5069630;28;20055;-70
2023/01/07 07:08:37;;;;;;;0.30;0.30;;;10.10;99.90;;;;;;5066554;28;20467;-70
2023/01/07 07:11:03;;;;;;;1.52;1.42;;;10.10;99.90;;;;;;5091008;28;20480;-70
2023/01/07 07:13:29;;;;;;;1.48;1.38;;;10.10;99.90;;;;;;5102288;28;20032;-71
2023/01/07 07:15:54;;;;;;;0.13;0.13;;;10.20;99.90;;;;;;5075831;28;20503;-69
2023/01/07 07:18:20;;;;;;;0.32;0.32;;;10.20;99.90;;;;;;5096847;28;20101;-71
2023/01/07 07:20:46;;;;;;;0.28;0.28;;;10.10;99.90;;;;;;5074174;28;20124;-71
2023/01/07 07:23:12;;;;;;;0.10;0.10;;;10.10;99.90;;;;;;5063403;28;20039;-71
2023/01/07 07:25:38;;;;;;;0.32;0.15;;;10.10;99.90;;;;;;5076344;28;20036;-71
2023/01/07 07:28:04;;;;;;;1.80;1.70;;;10.10;99.90;;;;;;5078295;28;20739;-71
2023/01/07 07:30:30;;;;;;;0.32;0.32;;;10.10;99.90;;;;;;5078196;28;20056;-71
2023/01/07 07:33:00;;;;;;;0.57;0.57;;;10.10;99.90;;;;;;5092131;28;20118;-71
2023/01/07 07:35:25;;;;;;;0.15;0.15;;;10.10;99.90;;;;;;5084273;28;20047;-71
2023/01/07 07:37:51;;;;;;;0.40;0.40;;;10.00;99.90;;;;;;5080032;28;20044;-71
2023/01/07 07:40:17;;;;;;;0.20;0.20;;;10.00;99.90;;;;;;5097602;28;20031;-71
2023/01/07 07:42:42;;;;;;;0.20;0.20;;;10.00;99.90;;;;;;5079930;28;20048;-71
2023/01/07 07:45:09;;;;;;;0.20;0.20;;;10.00;99.90;;;;;;5087630;28;20044;-71
2023/01/07 07:47:34;;;;;;;0.10;0.10;;;10.00;99.90;;;;;;5060325;28;20506;-71
2023/01/07 07:50:00;;;;;;;0.10;0.10;;;10.00;99.90;;;;;;5092216;28;20044;-71
2023/01/07 07:52:26;;;;;;;0.38;0.38;;;10.00;99.90;;;;;;5111603;28;20124;-71
2023/01/07 07:54:51;;;;;;;0.10;0.10;;;10.00;99.90;;;;;;5111641;28;20051;-71
2023/01/07 07:57:17;;;;;;;0.63;0.35;;;10.00;99.90;;;;;;5072846;28;20121;-71
2023/01/07 07:59:43;;;;;;;1.30;1.20;;;10.00;99.90;;;;;;5096351;28;20132;-70
2023/01/07 08:02:13;;;;;;;1.85;1.20;;;10.00;99.90;;;;;;5092760;28;20032;-70
2023/01/07 08:04:38;;;;;;;0.10;0.10;;;10.00;99.90;;;;;;5086270;28;20136;-70
2023/01/07 08:07:04;;;;;;;0.35;0.35;;;10.00;99.90;;;;;;5084471;28;20517;-72
2023/01/07 08:09:30;;;;;;;0.30;0.30;;;9.90;99.90;;;;;;5099930;28;20148;-71
2023/01/07 08:11:56;;;;;;;5.38;3.30;;;10.00;99.90;;;;;;5074017;28;20071;-72
2023/01/07 08:14:21;;;;;;;0.52;0.52;;;10.00;99.90;;;;;;5078892;28;20162;-72
2023/01/07 08:16:47;;;;;;;0.25;0.25;;;10.00;99.90;;;;;;5076162;28;20048;-73
2023/01/07 08:19:14;;;;;;;0.10;0.10;;;10.00;99.90;;;;;;5076404;28;20048;-73
2023/01/07 08:21:39;;;;;;;0.10;0.10;;;10.00;99.90;;;;;;5087854;28;20434;-72
2023/01/07 08:24:05;;;;;;;0.25;0.25;;;10.00;99.90;;;;;;5110012;28;20031;-73
2023/01/07 08:26:31;;;;;;;0.10;0.10;;;10.00;99.90;;;;;;5077261;28;20048;-72
2023/01/07 08:28:57;;;;;;;0.08;0.08;;;9.90;99.90;;;;;;5078094;28;20558;-76
2023/01/07 08:31:22;;;;;;;0.40;0.40;;;10.00;99.90;;;;;;5109937;28;20151;-72
2023/01/07 08:33:48;;;;;;;1.65;0.98;;;10.00;99.90;;;;;;5110840;28;20051;-72
2023/01/07 08:36:14;;;;;;;0.30;0.30;;;10.00;99.90;;;;;;5088111;28;20118;-72
2023/01/07 08:38:39;;;;;;;0.10;0.10;;;10.00;99.90;;;;;;5085189;28;20040;-72
2023/01/07 08:41:05;;;;;;;2.65;1.65;;;10.00;99.90;;;;;;5066362;28;20059;-72
2023/01/07 08:43:32;;;;;;;0.20;0.20;;;10.00;99.90;;;;;;5077735;28;20056;-69
2023/01/07 08:45:58;;;;;;;0.13;0.13;;;10.00;99.90;;;;;;5085645;28;20423;-70
2023/01/07 08:48:24;;;;;;;0.10;0.10;;;10.00;99.90;;;;;;5063269;28;20418;-71
2023/01/07 08:50:51;;;;;;;0.10;0.10;;;10.00;99.90;;;;;;5085175;28;20051;-71
2023/01/07 08:53:21;;;;;;;0.25;0.25;;;10.00;99.90;;;;;;5081915;28;20495;-71
2023/01/07 08:55:47;;;;;;;0.65;0.25;;;10.00;99.90;;;;;;5066473;28;20058;-71
2023/01/07 08:58:13;;;;;;;1.30;1.00;;;10.00;99.90;;;;;;5088193;28;20043;-71
2023/01/07 09:00:40;;;;;;;0.90;0.57;;;10.00;99.90;;;;;;5080024;28;20062;-71
2023/01/07 09:03:06;;;;;;;0.25;0.25;;;10.00;99.90;;;;;;5073728;28;20127;-71
2023/01/07 09:05:33;;;;;;;0.73;0.73;;;10.00;99.90;;;;;;5063056;28;20056;-71
2023/01/07 09:08:01;;;;;;;1.30;1.20;;;10.00;99.90;;;;;;5085912;28;20381;-71
2023/01/07 09:10:27;;;;;;;0.75;0.75;;;10.10;99.90;;;;;;5079626;28;20055;-71
2023/01/07 09:12:53;;;;;;;0.10;0.10;;;10.10;99.90;;;;;;5109394;28;20079;-71
2023/01/07 09:15:19;;;;;;;0.30;0.30;;;10.10;99.90;;;;;;5077351;28;20047;-71
2023/01/07 09:17:45;;;;;;;0.47;0.47;;;10.10;99.90;;;;;;5090522;28;20043;-72
2023/01/07 09:20:11;;;;;;;0.20;0.20;;;10.10;99.90;;;;;;5083757;28;20093;-72
2023/01/07 09:22:37;;;;;;;0.10;0.10;;;10.10;99.90;;;;;;5076103;28;20052;-71
2023/01/07 09:25:04;;;;;;;0.30;0.30;;;10.10;99.90;;;;;;5077628;28;20048;-71
2023/01/07 09:27:29;;;;;;;0.25;0.25;;;10.10;99.90;;;;;;5089285;28;20047;-71
2023/01/07 09:29:57;;;;;;;0.10;0.10;;;10.10;99.90;;;;;;5090416;28;20044;-72
2023/01/07 09:32:24;;;;;;;0.20;0.15;;;10.10;99.90;;;;;;5085160;28;20443;-72
2023/01/07 09:34:49;;;;;;;0.10;0.10;;;10.10;99.90;;;;;;5081727;28;20127;-71
2023/01/07 09:37:15;;;;;;;0.20;0.20;;;10.10;99.90;;;;;;5093222;28;20132;-71
2023/01/07 09:39:41;;;;;;;0.60;0.60;;;10.10;99.90;;;;;;5086126;28;20424;-71
2023/01/07 09:42:33;;;;;;;0.10;0.10;;;10.10;99.90;;;;;;5096723;28;20377;-71
2023/01/07 09:45:05;;;;;;;0.20;0.20;;;10.20;99.90;;;;;;5090588;28;20043;-71
2023/01/07 09:47:35;;;;;;;0.40;0.40;;;10.20;99.90;;;;;;5077616;28;20459;-71
2023/01/07 09:50:10;;;;;;;0.10;0.10;;;10.20;99.90;;;;;;5067933;28;20058;-71
2023/01/07 09:52:42;;;;;;;0.03;0.03;;;10.20;99.90;;;;;;5071006;28;20083;-72
2023/01/07 09:55:18;;;;;;;0.15;0.15;;;10.20;99.90;;;;;;5076915;28;20058;-71
2023/01/07 09:57:44;;;;;;;0.20;0.20;;;10.20;99.90;;;;;;5085390;28;20093;-69
2023/01/07 10:00:18;;;;;;;0.47;0.47;;;10.30;99.90;;;;;;5076988;28;20041;-69
2023/01/07 10:03:04;;;;;;;0.00;0.00;;;10.30;99.90;;;;;;5094546;28;20127;-70
2023/01/07 10:05:34;;;;;;;0.10;0.10;;;10.30;99.90;;;;;;5080603;28;20135;-70
2023/01/07 10:08:25;;;;;;;0.00;0.00;;;10.30;99.90;;;;;;5096747;28;20043;-71
2023/01/07 10:10:59;;;;;;;0.20;0.20;;;10.30;99.90;;;;;;5085743;28;20128;-71
2023/01/07 10:13:36;;;;;;;0.30;0.30;;;10.40;99.90;;;;;;5072074;28;20107;-67
2023/01/07 10:16:43;;;;;;;0.10;0.10;;;10.40;99.90;;;;;;5088730;28;20052;-70
2023/01/07 10:19:16;;;;;;;0.10;0.10;;;10.40;99.90;;;;;;5068027;28;20063;-70
2023/01/07 10:21:55;;;;;;;0.10;0.10;;;10.40;99.90;;;;;;5064142;28;20503;-70
2023/01/07 10:24:27;;;;;;;0.10;0.10;;;10.50;99.90;;;;;;5095178;28;20487;-70
2023/01/07 10:26:59;;;;;;;0.03;0.03;;;10.50;99.90;;;;;;5090596;28;20052;-71
2023/01/07 10:29:27;;;;;;;0.10;0.10;;;10.60;99.90;;;;;;5060303;28;20044;-69
2023/01/07 10:31:57;;;;;;;0.90;0.57;;;10.50;99.90;;;;;;5080616;28;20047;-69
2023/01/07 10:34:30;;;;;;;0.10;0.10;;;10.60;99.90;;;;;;5082428;28;20085;-69
2023/01/07 10:37:00;;;;;;;;;;;10.60;99.90;;;;;;5096257;28;20448;-69
2023/01/07 10:39:41;;;;;;;0.08;0.08;;;10.60;99.90;;;;;;5086153;28;19931;-70
2023/01/07 10:42:36;;;;;;;0.00;0.00;;;10.70;99.90;;;;;;5091114;28;20048;-70
2023/01/07 10:45:23;;;;;;;0.10;0.10;;;10.70;99.90;;;;;;5097110;28;20062;-68
2023/01/07 10:48:00;;;;;;;0.10;0.10;;;10.70;99.90;;;;;;5095079;28;20470;-68
2023/01/07 10:50:41;;;;;;;0.35;0.35;;;10.70;99.90;;;;;;5089362;28;20031;-68
2023/01/07 10:53:20;;;;;;;0.10;0.10;;;10.70;99.90;;;;;;5074190;28;20122;-68
2023/01/07 10:56:23;;;;;;;0.08;0.08;;;10.80;99.90;;;;;;5094518;28;20039;-68
2023/01/07 10:58:49;;;;;;;0.30;0.30;;;10.80;99.90;;;;;;5093163;28;20043;-68
2023/01/07 11:01:39;;;;;;;0.38;0.38;;;10.90;99.90;;;;;;5075846;28;20045;-68
2023/01/07 11:04:13;;;;;;;1.35;0.55;;;10.90;99.90;;;;;;5084300;28;20384;-70
2023/01/07 11:06:51;;;;;;;0.10;0.10;;;10.90;99.90;;;;;;5086851;28;20067;-70
2023/01/07 11:09:44;;;;;;;0.10;0.10;;;10.90;99.90;;;;;;5064302;28;20039;-70
2023/01/07 11:12:31;;;;;;;0.10;0.10;;;10.90;99.90;;;;;;5062287;28;20585;-72
2023/01/07 11:15:00;;;;;;;0.20;0.20;;;10.90;99.90;;;;;;5099181;28;20058;-71
2023/01/07 11:17:48;;;;;;;0.10;0.10;;;10.90;99.90;;;;;;5098519;28;20078;-70
2023/01/07 11:20:41;;;;;;;0.10;0.10;;;10.90;99.90;;;;;;5080740;28;20036;-70
2023/01/07 11:23:29;;;;;;;0.10;0.10;;;10.90;99.90;;;;;;5065614;28;20082;-70
2023/01/07 11:26:24;;;;;;;0.00;0.00;;;10.90;99.90;;;;;;5062767;28;20055;-72
2023/01/07 11:28:53;;;;;;;1.13;0.73;;;10.90;99.90;;;;;;5077142;28;20375;-70
2023/01/07 11:31:22;;;;;;;0.10;0.10;;;11.00;99.90;;;;;;5074488;28;20041;-70
2023/01/07 11:33:57;;;;;;;0.08;0.08;;;11.00;99.90;;;;;;5090143;28;20059;-68
2023/01/07 11:36:38;;;;;;;0.13;0.13;;;11.00;99.90;;;;;;5097217;28;20539;-71
2023/01/07 11:39:28;;;;;;;0.80;0.65;;;11.00;99.90;;;;;;5089125;28;20041;-70
2023/01/07 11:42:37;;;;;;;0.00;0.00;;;11.10;99.90;;;;;;5091492;28;20055;-70
2023/01/07 11:44:46;;;;;;;0.10;0.10;;;11.10;99.90;;;;;;5088077;28;20045;-70
2023/01/07 11:47:17;;;;;;;0.73;0.57;;;11.10;99.90;;;;;;5079094;28;20108;-70
2023/01/07 11:49:44;;;;;;;0.10;0.10;;;11.20;99.90;;;;;;5068962;28;20451;-70
2023/01/07 11:52:18;;;;;;;0.00;0.00;;;11.20;99.90;;;;;;5090251;28;20608;-72
2023/01/07 11:54:51;;;;;;;0.10;0.10;;;11.10;99.90;;;;;;5092321;28;20503;-70
2023/01/07 11:57:24;;;;;;;0.00;0.00;;;11.20;99.90;;;;;;5082695;28;20483;-70
2023/01/07 12:00:17;;;;;;;0.00;0.00;;;11.20;99.90;;;;;;5106921;28;20055;-70
2023/01/07 12:02:43;;;;;;;0.00;0.00;;;11.20;99.90;;;;;;5093657;28;20052;-70
2023/01/07 12:05:22;;;;;;;0.10;0.10;;;11.20;99.90;;;;;;5075500;28;20510;-70
2023/01/07 12:07:50;;;;;;;0.08;0.08;;;11.10;99.90;;;;;;5096545;28;20503;-71
2023/01/07 12:10:37;;;;;;;0.40;0.40;;;11.20;99.90;;;;;;5091524;28;20047;-70
2023/01/07 12:13:06;;;;;;;0.15;0.15;;;11.20;99.90;;;;;;5097532;28;20550;-70
2023/01/07 12:15:36;;;;;;;0.10;0.10;;;11.40;99.90;;;;;;5078882;28;20045;-70
2023/01/07 12:18:07;;;;;;;0.10;0.10;;;11.40;99.90;;;;;;5083691;28;20054;-71
2023/01/07 12:20:39;;;;;;;0.45;0.45;;;11.50;99.90;;;;;;5078235;28;20131;-70
2023/01/07 12:23:48;;;;;;;0.00;0.00;;;11.60;99.90;;;;;;5092236;28;20051;-70
2023/01/07 12:26:39;;;;;;;3.95;2.17;;;11.70;99.90;;;;;;5071193;28;20051;-70
2023/01/07 12:29:36;;;;;;;0.20;0.20;;;11.70;99.90;;;;;;5097547;28;20038;-70
2023/01/07 12:32:08;;;;;;;0.03;0.03;;;11.70;99.90;;;;;;5068900;28;20092;-71
2023/01/07 12:34:58;;;;;;;2.08;0.73;;;11.70;99.90;;;;;;5100494;28;20048;-70
2023/01/07 12:37:34;;;;;;;0.10;0.10;;;11.80;99.90;;;;;;5073930;28;20048;-70
2023/01/07 12:40:18;;;;;;;0.30;0.30;;;11.80;99.90;;;;;;5074979;28;20044;-70
2023/01/07 12:42:49;;;;;;;;;;;11.90;99.90;;;;;;5095294;28;20523;-71
2023/01/07 12:45:28;;;;;;;0.10;0.10;;;11.90;99.90;;;;;;5086505;28;19927;-70
2023/01/07 12:48:00;;;;;;;0.10;0.10;;;11.80;99.90;;;;;;5080935;28;20052;-70
2023/01/07 12:50:32;;;;;;;0.00;0.00;;;11.70;99.90;;;;;;5081459;28;20036;-70
2023/01/07 12:53:17;;;;;;;0.10;0.10;;;11.70;99.90;;;;;;5110247;28;20066;-69
2023/01/07 12:55:51;;;;;;;0.10;0.10;;;11.70;99.90;;;;;;5091952;28;20090;-70
2023/01/07 12:58:35;;;;;;;0.00;0.00;;;11.70;99.90;;;;;;5076906;28;20054;-70
2023/01/07 13:01:23;;;;;;;0.28;0.28;;;11.70;99.90;;;;;;5086757;28;20507;-70
2023/01/07 13:03:59;;;;;;;0.10;0.10;;;11.70;99.90;;;;;;5080523;28;20040;-70
2023/01/07 13:06:54;;;;;;;0.00;0.00;;;11.70;99.90;;;;;;5062055;28;20048;-71
2023/01/07 13:09:35;;;;;;;0.10;0.10;;;11.70;99.90;;;;;;5064103;28;20458;-71
2023/01/07 13:15:09;;;;;;;0.10;0.10;;;11.80;99.90;;;;;;5103960;28;20047;-71